Página principal
METAR-TAF:

METAR-TAF

Aeroportos :

Wallis, França

latitude: 13-14S, longitude: 176-10W, altura: 23 m

Observação actual do tempo

O boletim foi feito há 38 minutos, às 12:00 UTC
Vento 3 kt de su-sudeste
Temperatura 26°C
Humidade 94%
Pressão 1006 hPa
Visibilidade 10 km ou mais

METAR: NLWW 161200Z AUTO 16003KT 9999 NCD 26/25 Q1006 NOSIG

Hora: 00:38 (12:38 UTC)

Previsão

O boletim foi feito há 1 hora e 38 minutos, às 11:00 UTC
Previsão válida de 16 às 12 UTC a 17 às 12 UTC
Vento 5 kt de sudeste
Visibilidade 10 km ou mais
Poucas nuvensa uma altura de 2500 ft

TAF: NLWW 161100Z 1612/1712 14005KT 9999 FEW025

Observações e previsões do tempo de mais de 4000 aeroportos (mensagens METAR e TAF).

As estações disponíveis são os pontos amarelos e vermelhos sobre o mapa.

Mova o rato sobre o mapa para ver o nome da estação.

Depois clique no ponto para visualizar as observações e previsões meteorológicas.

Para alterar o mapa : clique nos botões verdes com uma cruz preta para aumentar o zoom; no botão verde com uma pitada de zoom; ou nas setas verdes para mapas adjacentes.


METAR-TAF: